Loveladies, New Jersey
Current Conditions -  °F | °C
As of 10:35 AM on Monday 24 Nov 2014 (Local Time) from KMJX Reporting Station
Overcast Overcast  
Wind Chill: 66°   Ceiling: 1100
Heat Index: 66°   Visibility: 10mi
Dew Point: 63°   Wind: 10mph
Humidity: 88%   Direction: 200°SSW
Pressure: 29.7"   Gusts: NA
Location:  39.623°N, 74.1974°W
Report Text: KMJX 241535Z AUTO 20009KT 10SM BKN011 OVC020 19/17 A2970 RMK AO1
Loading
Personal Weather Stations






























Interactive Weather Map New forecast layout! Learn more

10-Day Weather Forecast

Advertisements
Track Severe Weather on mobile